Thunder radar more information blitzortung!


Radar de pluja more information rain snow radar


Visita la nostra xarxa de llocs de meteo:

Template documentation
and downloads

And another site



Extreme low temperature From: 13-12-2017 09:00 Until: 09:59 warning for: Extreme low temperature Level: Yellow info button

Pagina Historial Weather Underground text

Diari Resum Marc 31, 2016 Unitats:  Mètric    Imperial   Tant
« Previous Dia
SegĂźent Dia »
Diari Setmana Mensual Anual Personalitzada
  Maxima: Minima: Media:
Temperatura: 22.2 °C 9.5 °C 15.8 °C
Punt de rosada: 10.5 °C -1.4 °C 2.9 °C
Humitat: 63 % 30 % 43 %
Wind Speed: 24.1 km/h 0.0 km/h 9.3 km/h
RĂ fegues de vent: 24.1 km/h - -
Vent:- - SW
Pression baro: 1013.8 hPa 1005.0 hPa -
Precipitacions: 0.0 mm    
Historical Graphs
 
 
Dades de taula per Marc 31, 2016
Temps Temperatura Punt de rosada Pression baro Vent Wind Speed RĂ fegues de vent Humitat Rainfall Rate (Hourly)
00:00 12.8 °C 5.9 °C 1013.8 hPa NNE 3.7 km/h 3.7 km/h 63 % 0.0 mm
03:10 10.6 °C 3.4 °C 1007.0 hPa Calm   1.6 km/h 61 % 0.0 mm
03:20 10.7 °C 3.5 °C 1007.0 hPa East 1.6 km/h 3.2 km/h 61 % 0.0 mm
03:30 10.7 °C 3.5 °C 1006.0 hPa ENE 1.6 km/h 3.2 km/h 61 % 0.0 mm
03:40 11.0 °C 3.8 °C 1007.0 hPa NE 3.2 km/h 3.2 km/h 61 % 0.0 mm
03:50 11.4 °C 3.9 °C 1007.0 hPa NE 1.6 km/h 3.2 km/h 60 % 0.0 mm
04:00 11.8 °C 4.1 °C 1006.0 hPa NE 4.8 km/h 6.4 km/h 59 % 0.0 mm
04:10 12.4 °C 4.6 °C 1006.0 hPa NE 3.2 km/h 6.4 km/h 59 % 0.0 mm
04:20 12.7 °C 4.9 °C 1006.0 hPa NE 4.8 km/h 6.4 km/h 59 % 0.0 mm
04:30 13.7 °C 5.6 °C 1005.0 hPa ENE 4.8 km/h 6.4 km/h 58 % 0.0 mm
04:40 14.0 °C 5.6 °C 1006.0 hPa East 8.0 km/h 12.9 km/h 57 % 0.0 mm
04:50 14.2 °C 5.8 °C 1006.0 hPa East 3.2 km/h 6.4 km/h 57 % 0.0 mm
05:00 14.1 °C 5.7 °C 1006.0 hPa East 3.2 km/h 8.0 km/h 57 % 0.0 mm
05:10 14.2 °C 5.8 °C 1006.0 hPa East 4.8 km/h 8.0 km/h 57 % 0.0 mm
05:20 14.4 °C 6.0 °C 1006.0 hPa ESE 1.6 km/h 3.2 km/h 57 % 0.0 mm
05:30 14.8 °C 6.1 °C 1006.0 hPa East 1.6 km/h 3.2 km/h 56 % 0.0 mm
05:40 14.9 °C 6.2 °C 1006.0 hPa SSW 4.8 km/h 4.8 km/h 56 % 0.0 mm
05:50 15.3 °C 6.6 °C 1006.0 hPa SW 3.2 km/h 6.4 km/h 56 % 0.0 mm
05:55 15.9 °C 6.9 °C 1006.0 hPa WSW 3.2 km/h 3.2 km/h 55 % 0.0 mm
10:57 15.9 °C 6.9 °C 1006.0 hPa WSW 4.2 km/h 5.0 km/h 55 % 0.0 mm
11:02 16.0 °C 6.7 °C 1006.0 hPa WSW 5.6 km/h 5.6 km/h 54 % 0.0 mm
11:07 16.5 °C 7.2 °C 1007.0 hPa West 5.6 km/h 5.6 km/h 54 % 0.0 mm
11:12 16.6 °C 7.2 °C 1007.0 hPa SW 7.4 km/h 7.4 km/h 54 % 0.0 mm
11:17 17.4 °C 7.7 °C 1007.0 hPa NNE 3.7 km/h 3.7 km/h 53 % 0.0 mm
11:22 17.6 °C 7.6 °C 1006.0 hPa SW 7.4 km/h 7.4 km/h 52 % 0.0 mm
11:27 17.6 °C 7.3 °C 1006.0 hPa SE 5.6 km/h 5.6 km/h 51 % 0.0 mm
11:32 18.3 °C 8.0 °C 1006.0 hPa SW 3.7 km/h 3.7 km/h 51 % 0.0 mm
11:37 18.6 °C 8.3 °C 1006.0 hPa WSW 3.7 km/h 3.7 km/h 51 % 0.0 mm
11:42 19.1 °C 8.4 °C 1006.0 hPa South 3.7 km/h 3.7 km/h 50 % 0.0 mm
11:47 19.6 °C 8.9 °C 1006.0 hPa SSW 3.7 km/h 3.7 km/h 50 % 0.0 mm
11:52 19.6 °C 8.6 °C 1006.0 hPa SSE 7.4 km/h 7.4 km/h 49 % 0.0 mm
11:57 20.0 °C 8.9 °C 1006.0 hPa SSW 5.6 km/h 5.6 km/h 49 % 0.0 mm
12:02 20.4 °C 9.0 °C 1006.0 hPa SW 3.7 km/h 3.7 km/h 48 % 0.0 mm
12:07 20.4 °C 9.0 °C 1006.0 hPa WSW 5.8 km/h 5.8 km/h 48 % 0.0 mm
12:12 20.8 °C 9.1 °C 1006.0 hPa SSW 3.7 km/h 3.7 km/h 47 % 0.0 mm
12:17 20.6 °C 8.9 °C 1006.0 hPa SSW 3.2 km/h 3.2 km/h 47 % 0.0 mm
12:22 20.2 °C 8.2 °C 1006.0 hPa SW 7.4 km/h 7.4 km/h 46 % 0.0 mm
12:27 20.5 °C 8.8 °C 1006.0 hPa SSW 9.0 km/h 9.0 km/h 47 % 0.0 mm
12:32 20.3 °C 8.3 °C 1006.0 hPa SW 7.4 km/h 7.4 km/h 46 % 0.0 mm
12:37 20.3 °C 7.9 °C 1006.0 hPa SW 9.3 km/h 9.3 km/h 45 % 0.0 mm
12:42 20.3 °C 7.9 °C 1006.0 hPa SW 13.0 km/h 13.0 km/h 45 % 0.0 mm
12:47 20.1 °C 7.8 °C 1006.0 hPa SW 11.1 km/h 11.1 km/h 45 % 0.0 mm
12:52 20.3 °C 7.9 °C 1006.0 hPa South 9.3 km/h 9.3 km/h 45 % 0.0 mm
12:57 20.3 °C 7.9 °C 1006.0 hPa WSW 16.7 km/h 16.7 km/h 45 % 0.0 mm
13:02 20.8 °C 8.8 °C 1006.0 hPa SW 13.0 km/h 13.0 km/h 46 % 0.0 mm
13:07 20.6 °C 8.6 °C 1006.0 hPa SW 11.1 km/h 11.1 km/h 46 % 0.0 mm
13:12 20.8 °C 8.8 °C 1006.0 hPa SSW 14.8 km/h 14.8 km/h 46 % 0.0 mm
13:17 20.6 °C 8.6 °C 1006.0 hPa SW 16.7 km/h 16.7 km/h 46 % 0.0 mm
13:22 20.8 °C 9.1 °C 1005.0 hPa SW 12.6 km/h 12.6 km/h 47 % 0.0 mm
13:27 20.6 °C 8.9 °C 1005.0 hPa SW 18.5 km/h 18.5 km/h 47 % 0.0 mm
13:32 20.5 °C 9.1 °C 1005.0 hPa SW 11.9 km/h 11.9 km/h 48 % 0.0 mm
13:37 20.5 °C 8.8 °C 1006.0 hPa WSW 20.4 km/h 20.4 km/h 47 % 0.0 mm
13:42 20.4 °C 9.0 °C 1006.0 hPa WSW 20.4 km/h 20.4 km/h 48 % 0.0 mm
13:47 20.8 °C 9.4 °C 1006.0 hPa SW 9.7 km/h 9.7 km/h 48 % 0.0 mm
13:52 20.8 °C 9.4 °C 1006.0 hPa WNW 14.8 km/h 14.8 km/h 48 % 0.0 mm
13:57 21.0 °C 9.6 °C 1006.0 hPa WSW 14.8 km/h 14.8 km/h 48 % 0.0 mm
14:02 21.2 °C 9.7 °C 1006.0 hPa SW 7.4 km/h 7.4 km/h 48 % 0.0 mm
14:12 22.0 °C 10.5 °C 1005.0 hPa WSW 11.1 km/h 11.1 km/h 48 % 0.0 mm
14:17 22.2 °C 10.3 °C 1005.0 hPa WNW 13.0 km/h 13.0 km/h 47 % 0.0 mm
14:27 20.5 °C 8.2 °C 1006.0 hPa WSW 16.7 km/h 16.7 km/h 45 % 0.0 mm
14:32 20.1 °C 7.8 °C 1006.0 hPa NNW 16.7 km/h 16.7 km/h 45 % 0.0 mm
14:37 20.0 °C 7.4 °C 1006.0 hPa WNW 20.4 km/h 20.4 km/h 44 % 0.0 mm
14:42 20.3 °C 7.7 °C 1006.0 hPa WNW 13.0 km/h 13.0 km/h 44 % 0.0 mm
14:47 20.1 °C 7.1 °C 1006.0 hPa West 21.2 km/h 21.2 km/h 43 % 0.0 mm
14:52 20.0 °C 6.7 °C 1005.0 hPa WSW 20.4 km/h 20.4 km/h 42 % 0.0 mm
14:57 20.0 °C 6.3 °C 1005.0 hPa West 18.5 km/h 18.5 km/h 41 % 0.0 mm
15:02 19.9 °C 6.2 °C 1005.0 hPa WSW 16.7 km/h 16.7 km/h 41 % 0.0 mm
15:07 20.0 °C 5.2 °C 1006.0 hPa West 22.2 km/h 22.2 km/h 38 % 0.0 mm
15:12 20.2 °C 5.1 °C 1006.0 hPa SW 16.7 km/h 16.7 km/h 37 % 0.0 mm
15:17 19.9 °C 4.8 °C 1006.0 hPa West 20.4 km/h 20.4 km/h 37 % 0.0 mm
15:22 19.9 °C 4.0 °C 1007.0 hPa NW 16.7 km/h 16.7 km/h 35 % 0.0 mm
15:27 20.2 °C 3.4 °C 1007.0 hPa WSW 20.4 km/h 20.4 km/h 33 % 0.0 mm
15:32 20.0 °C 3.2 °C 1007.0 hPa NW 22.2 km/h 22.2 km/h 33 % 0.0 mm
15:37 20.1 °C 2.9 °C 1007.0 hPa NW 16.7 km/h 16.7 km/h 32 % 0.0 mm
15:42 20.1 °C 2.4 °C 1007.0 hPa SW 16.9 km/h 16.9 km/h 31 % 0.0 mm
15:47 20.0 °C 1.9 °C 1007.0 hPa SW 20.4 km/h 20.4 km/h 30 % 0.0 mm
15:52 20.1 °C 2.4 °C 1007.0 hPa SSW 14.8 km/h 14.8 km/h 31 % 0.0 mm
15:57 20.1 °C 1.9 °C 1007.0 hPa SW 18.5 km/h 18.5 km/h 30 % 0.0 mm
16:02 20.0 °C 1.9 °C 1007.0 hPa WSW 16.7 km/h 16.7 km/h 30 % 0.0 mm
16:07 19.9 °C 2.3 °C 1007.0 hPa West 19.5 km/h 19.5 km/h 31 % 0.0 mm
16:12 19.8 °C 2.2 °C 1007.0 hPa West 16.7 km/h 16.7 km/h 31 % 0.0 mm
16:17 19.5 °C 1.9 °C 1007.0 hPa WSW 14.8 km/h 14.8 km/h 31 % 0.0 mm
16:22 19.0 °C 1.5 °C 1007.0 hPa WSW 20.4 km/h 20.4 km/h 31 % 0.0 mm
16:27 19.2 °C 1.7 °C 1007.0 hPa SW 18.5 km/h 18.5 km/h 31 % 0.0 mm
16:32 19.5 °C 1.9 °C 1007.0 hPa WSW 16.7 km/h 16.7 km/h 31 % 0.0 mm
16:37 19.3 °C 1.7 °C 1008.0 hPa West 18.5 km/h 18.5 km/h 31 % 0.0 mm
16:46 19.4 °C 1.8 °C 1008.0 hPa WSW 7.4 km/h 10.8 km/h 31 % 0.0 mm
16:51 19.6 °C 2.0 °C 1007.0 hPa West 19.8 km/h 19.8 km/h 31 % 0.0 mm
16:56 19.5 °C 1.9 °C 1007.0 hPa WSW 17.2 km/h 17.2 km/h 31 % 0.0 mm
17:01 19.3 °C 1.7 °C 1007.0 hPa WSW 20.4 km/h 20.4 km/h 31 % 0.0 mm
17:11 19.3 °C 1.7 °C 1007.0 hPa WNW 18.5 km/h 18.5 km/h 31 % 0.0 mm
17:16 19.2 °C 1.7 °C 1007.0 hPa NNE 13.0 km/h 13.0 km/h 31 % 0.0 mm
17:21 19.3 °C 1.7 °C 1007.0 hPa West 22.2 km/h 22.2 km/h 31 % 0.0 mm
17:26 19.1 °C 1.6 °C 1007.0 hPa WNW 20.9 km/h 20.9 km/h 31 % 0.0 mm
17:31 19.0 °C 1.5 °C 1007.0 hPa NNW 22.2 km/h 22.2 km/h 31 % 0.0 mm
17:36 19.0 °C 1.5 °C 1008.0 hPa West 18.5 km/h 18.5 km/h 31 % 0.0 mm
17:41 18.8 °C 1.3 °C 1008.0 hPa West 24.1 km/h 24.1 km/h 31 % 0.0 mm
17:46 18.4 °C 0.5 °C 1008.0 hPa West 14.8 km/h 14.8 km/h 30 % 0.0 mm
17:51 18.2 °C 0.8 °C 1007.0 hPa West 16.4 km/h 16.4 km/h 31 % 0.0 mm
17:56 18.1 °C 0.7 °C 1007.0 hPa ESE 13.0 km/h 13.0 km/h 31 % 0.0 mm
18:01 18.2 °C 0.8 °C 1007.0 hPa NW 13.0 km/h 13.0 km/h 31 % 0.0 mm
18:06 18.1 °C 0.7 °C 1008.0 hPa SW 16.7 km/h 16.7 km/h 31 % 0.0 mm
18:11 18.1 °C 1.1 °C 1008.0 hPa WNW 11.9 km/h 11.9 km/h 32 % 0.0 mm
18:16 17.9 °C 0.9 °C 1008.0 hPa NW 15.6 km/h 15.6 km/h 32 % 0.0 mm
18:21 17.8 °C 0.9 °C 1008.0 hPa WSW 16.7 km/h 16.7 km/h 32 % 0.0 mm
18:26 17.6 °C 1.1 °C 1008.0 hPa WSW 11.1 km/h 11.1 km/h 33 % 0.0 mm
18:31 17.8 °C 0.9 °C 1008.0 hPa WNW 11.1 km/h 11.1 km/h 32 % 0.0 mm
18:36 17.6 °C 1.1 °C 1007.0 hPa WSW 9.5 km/h 9.5 km/h 33 % 0.0 mm
18:41 17.7 °C 1.2 °C 1007.0 hPa ESE 11.1 km/h 11.1 km/h 33 % 0.0 mm
18:46 17.7 °C 1.2 °C 1007.0 hPa West 13.0 km/h 13.0 km/h 33 % 0.0 mm
18:51 17.6 °C 1.1 °C 1008.0 hPa NW 11.1 km/h 11.1 km/h 33 % 0.0 mm
18:56 17.5 °C 1.1 °C 1008.0 hPa West 20.6 km/h 20.6 km/h 33 % 0.0 mm
19:01 17.1 °C 0.7 °C 1008.0 hPa WSW 13.7 km/h 13.7 km/h 33 % 0.0 mm
19:06 16.9 °C 0.1 °C 1008.0 hPa SW 16.7 km/h 16.7 km/h 32 % 0.0 mm
19:10 11.1 °C -1.0 °C 1008.0 hPa WSW 4.8 km/h 4.8 km/h 43 % 0.0 mm
19:11 16.7 °C -0.1 °C 1008.0 hPa West 14.0 km/h 14.0 km/h 32 % 0.0 mm
19:16 16.5 °C -0.7 °C 1008.0 hPa West 9.3 km/h 9.3 km/h 31 % 0.0 mm
19:20 10.9 °C -1.2 °C 1011.7 hPa West 3.2 km/h 3.2 km/h 43 % 0.0 mm
19:21 16.4 °C -0.8 °C 1008.0 hPa WSW 13.0 km/h 13.0 km/h 31 % 0.0 mm
19:26 16.1 °C -0.6 °C 1008.0 hPa West 16.7 km/h 16.7 km/h 32 % 0.0 mm
19:30 10.8 °C -1.3 °C 1011.7 hPa WNW 3.2 km/h 9.7 km/h 43 % 0.0 mm
19:31 16.0 °C -0.7 °C 1008.0 hPa West 11.1 km/h 11.1 km/h 32 % 0.0 mm
19:36 15.9 °C -0.4 °C 1008.0 hPa West 17.5 km/h 17.5 km/h 33 % 0.0 mm
19:41 15.6 °C -0.6 °C 1008.0 hPa WSW 18.5 km/h 18.5 km/h 33 % 0.0 mm
19:46 15.4 °C -0.4 °C 1008.0 hPa WNW 14.8 km/h 14.8 km/h 34 % 0.0 mm
19:51 15.1 °C -0.3 °C 1009.0 hPa WNW 11.1 km/h 11.1 km/h 35 % 0.0 mm
19:56 14.9 °C 0.3 °C 1009.0 hPa WSW 13.0 km/h 13.0 km/h 37 % 0.0 mm
20:00 10.7 °C -1.4 °C 1012.8 hPa NW 3.2 km/h 3.2 km/h 43 % 0.0 mm
20:01 14.8 °C 0.6 °C 1009.0 hPa West 16.7 km/h 16.7 km/h 38 % 0.0 mm
20:06 14.6 °C 0.8 °C 1008.0 hPa WSW 24.1 km/h 24.1 km/h 39 % 0.0 mm
20:10 10.8 °C -1.3 °C 1012.8 hPa NNE 3.2 km/h 4.8 km/h 43 % 0.0 mm
20:11 14.4 °C 0.6 °C 1008.0 hPa WSW 7.4 km/h 7.4 km/h 39 % 0.0 mm
20:16 14.3 °C 0.9 °C 1008.0 hPa SW 9.3 km/h 9.3 km/h 40 % 0.0 mm
20:20 10.8 °C -1.0 °C 1012.8 hPa North 3.2 km/h 8.0 km/h 44 % 0.0 mm
20:21 14.2 °C 1.1 °C 1008.0 hPa WSW 9.3 km/h 9.3 km/h 41 % 0.0 mm
20:26 14.1 °C 1.1 °C 1008.0 hPa West 10.0 km/h 10.0 km/h 41 % 0.0 mm
20:30 10.8 °C -1.0 °C 1013.8 hPa WNW 3.2 km/h 4.8 km/h 44 % 0.0 mm
20:31 14.0 °C 1.3 °C 1008.0 hPa SW 10.3 km/h 10.3 km/h 42 % 0.0 mm
20:36 13.9 °C 1.2 °C 1008.0 hPa WSW 4.7 km/h 4.7 km/h 42 % 0.0 mm
20:40 10.8 °C -1.0 °C 1012.8 hPa WNW 3.2 km/h 3.2 km/h 44 % 0.0 mm
20:41 13.8 °C 1.1 °C 1008.0 hPa West 9.3 km/h 9.3 km/h 42 % 0.0 mm
20:46 13.7 °C 1.0 °C 1008.0 hPa WSW 2.6 km/h 2.6 km/h 42 % 0.0 mm
20:50 10.8 °C -1.0 °C 1012.8 hPa NW 1.6 km/h 3.2 km/h 44 % 0.0 mm
20:51 13.6 °C 0.9 °C 1009.0 hPa SW 4.7 km/h 4.7 km/h 42 % 0.0 mm
20:56 13.5 °C 1.2 °C 1009.0 hPa Calm     43 % 0.0 mm
21:00 10.8 °C -1.0 °C 1013.8 hPa WNW 1.6 km/h 3.2 km/h 44 % 0.0 mm
21:01 13.4 °C 1.1 °C 1009.0 hPa Calm     43 % 0.0 mm
21:06 13.2 °C 0.9 °C 1009.0 hPa Calm     43 % 0.0 mm
21:10 10.8 °C -1.0 °C 1013.8 hPa West 1.6 km/h 4.8 km/h 44 % 0.0 mm
21:11 13.1 °C 0.8 °C 1009.0 hPa NE 3.7 km/h 3.7 km/h 43 % 0.0 mm
21:16 13.0 °C 0.7 °C 1009.0 hPa NE 1.9 km/h   43 % 0.0 mm
21:20 10.8 °C -0.7 °C 1013.8 hPa Calm   3.2 km/h 45 % 0.0 mm
21:21 12.9 °C 0.6 °C 1010.0 hPa Calm     43 % 0.0 mm
21:26 12.8 °C 0.5 °C 1010.0 hPa WNW 2.6 km/h   43 % 0.0 mm
21:30 10.8 °C -0.7 °C 1013.8 hPa WNW 1.6 km/h 4.8 km/h 45 % 0.0 mm
21:31 12.8 °C 0.5 °C 1010.0 hPa WSW 3.7 km/h 3.7 km/h 43 % 0.0 mm
21:36 12.8 °C 0.5 °C 1010.0 hPa WSW 3.7 km/h 3.9 km/h 43 % 0.0 mm
21:40 10.8 °C -0.7 °C 1013.8 hPa NE 1.6 km/h 4.8 km/h 45 % 0.0 mm
21:41 12.8 °C 0.8 °C 1010.0 hPa WSW 3.7 km/h 3.7 km/h 44 % 0.0 mm
21:46 12.6 °C 0.7 °C 1010.0 hPa WNW 2.3 km/h   44 % 0.0 mm
21:50 10.7 °C -0.8 °C 1013.8 hPa NNW 1.6 km/h 3.2 km/h 45 % 0.0 mm
21:51 12.5 °C 0.6 °C 1010.0 hPa SSW 3.7 km/h 3.7 km/h 44 % 0.0 mm
21:56 12.3 °C 0.4 °C 1010.0 hPa WSW 5.3 km/h 5.3 km/h 44 % 0.0 mm
22:00 10.7 °C -0.8 °C 1013.8 hPa Calm   4.8 km/h 45 % 0.0 mm
22:01 12.3 °C 0.7 °C 1010.0 hPa West 3.7 km/h 3.7 km/h 45 % 0.0 mm
22:10 10.6 °C -0.8 °C 1013.8 hPa NW 3.2 km/h 4.8 km/h 45 % 0.0 mm
22:11 12.3 °C 0.7 °C 1010.0 hPa West 1.9 km/h   45 % 0.0 mm
22:16 12.3 °C 0.7 °C 1010.0 hPa WSW 3.7 km/h 3.7 km/h 45 % 0.0 mm
22:20 10.6 °C -0.8 °C 1013.8 hPa NW 1.6 km/h 4.8 km/h 45 % 0.0 mm
22:26 12.3 °C 0.4 °C 1010.0 hPa West 5.8 km/h 5.8 km/h 44 % 0.0 mm
22:30 10.6 °C -0.6 °C 1013.8 hPa NNW 1.6 km/h 3.2 km/h 46 % 0.0 mm
22:32 12.3 °C 0.4 °C 1010.0 hPa WSW 3.7 km/h   44 % 0.0 mm
22:37 12.3 °C 0.4 °C 1010.7 hPa NNW 7.4 km/h 7.4 km/h 44 % 0.0 mm
22:40 10.4 °C -0.7 °C 1012.8 hPa NW 1.6 km/h 6.4 km/h 46 % 0.0 mm
22:42 12.3 °C 0.4 °C 1010.7 hPa West 3.7 km/h 3.7 km/h 44 % 0.0 mm
22:47 12.2 °C 0.3 °C 1010.7 hPa SW 11.4 km/h 11.4 km/h 44 % 0.0 mm
22:50 10.4 °C -0.7 °C 1012.8 hPa North 4.8 km/h 6.4 km/h 46 % 0.0 mm
22:52 12.2 °C 0.3 °C 1011.7 hPa SW 5.6 km/h 5.6 km/h 44 % 0.0 mm
22:57 12.1 °C 0.2 °C 1011.7 hPa West 5.6 km/h 5.6 km/h 44 % 0.0 mm
23:00 10.2 °C -0.9 °C 1013.8 hPa ENE 3.2 km/h 4.8 km/h 46 % 0.0 mm
23:02 12.1 °C -0.1 °C 1011.7 hPa WSW 14.8 km/h 14.8 km/h 43 % 0.0 mm
23:07 12.0 °C -0.2 °C 1011.7 hPa SW 7.4 km/h 7.4 km/h 43 % 0.0 mm
23:10 10.2 °C -0.9 °C 1013.8 hPa NNE 3.2 km/h 6.4 km/h 46 % 0.0 mm
23:12 11.8 °C -0.4 °C 1011.7 hPa SW 5.6 km/h 5.6 km/h 43 % 0.0 mm
23:17 11.6 °C -0.6 °C 1011.7 hPa WNW 3.7 km/h 3.7 km/h 43 % 0.0 mm
23:20 10.0 °C -1.1 °C 1013.8 hPa NNW 1.6 km/h 4.8 km/h 46 % 0.0 mm
23:22 11.5 °C -0.7 °C 1011.7 hPa West 3.7 km/h 3.7 km/h 43 % 0.0 mm
23:27 11.5 °C -0.7 °C 1011.7 hPa NE 1.9 km/h   43 % 0.0 mm
23:30 10.0 °C -0.8 °C 1013.8 hPa Calm   3.2 km/h 47 % 0.0 mm
23:32 11.4 °C -0.8 °C 1011.7 hPa West 1.9 km/h 1.9 km/h 43 % 0.0 mm
23:37 11.3 °C -0.8 °C 1011.7 hPa WSW 2.3 km/h 2.3 km/h 43 % 0.0 mm
23:40 9.8 °C -0.7 °C 1013.8 hPa North 3.2 km/h 6.4 km/h 48 % 0.0 mm
23:42 11.3 °C -0.8 °C 1011.7 hPa WSW 3.7 km/h 3.7 km/h 43 % 0.0 mm
23:47 11.2 °C -0.9 °C 1011.7 hPa WSW 3.9 km/h 3.9 km/h 43 % 0.0 mm
23:50 9.5 °C -0.4 °C 1013.8 hPa NNE 1.6 km/h 3.2 km/h 50 % 0.0 mm
23:52 11.2 °C -0.9 °C 1011.7 hPa SW 5.6 km/h 5.6 km/h 43 % 0.0 mm
23:57 11.2 °C -0.9 °C 1011.7 hPa NNE 7.4 km/h 7.4 km/h 43 % 0.0 mm
Meteo Sesrovires
Elogis d' Weather Underground - 3.5 mb

Guio original per  Jim McMurry - jmcmurry@mwt.net Adaptat per a la plantilla per  Wim van der Kuil - Leuven-Template.eu

Trobareu la nostra informacio del temps tambe a:

Weather Underground

AWEKAS